Terminal Aerodrome Forecast
Issued by NWS St Louis, MO

Home | Current Version | Previous Version | Text Only | Print | Product List | Glossary On
Versions: 1 2 3 4 5 6 7 8 9 10 11 12 13 14 15 16 17 18 19 20 21 22 23 24 25
301
FTUS43 KLSX 172053 AAA
TAFSTL
TAF AMD
KSTL 172053Z 1721/1824 25012G22KT P6SM SCT030
     FM180100 27007KT P6SM SKC
     FM181800 30005KT P6SM FEW040=

USA.gov is the U.S. government's official web portal to all federal, state and local government web resources and services.